Tuesday, January 15, 2019, 7:44 PM EST
Back to Local

KAUG, Augusta State Airport

Location: Augusta, ME, United States Lat: 44.317
Local Time: 7:44 PM EST ( 0:44 GMT) Lon: -69.8
Time Zone: US/Eastern Elev: 351 ft

Show me the last for .
Show Decoded

2019-01-15 18:53 METAR KAUG 152353Z AUTO 00000KT 10SM OVC039 M03/M08 A3005 RMK AO2 SLP183
                 T10281083 11006 21033 53010 =
2019-01-15 17:53 METAR KAUG 152253Z AUTO 28003KT 10SM OVC042 M03/M08 A3004 RMK AO2 SLP181
                 T10281083 =
2019-01-15 16:53 METAR KAUG 152153Z AUTO 00000KT 10SM BKN040 M02/M08 A3003 RMK AO2 SLP174
                 T10221083 =
2019-01-15 15:53 METAR KAUG 152053Z AUTO 34005KT 10SM FEW042 M02/M08 A3002 RMK AO2 SLP173
                 T10221083 51009 =
2019-01-15 14:53 METAR KAUG 151953Z AUTO 32007KT 10SM FEW033 M01/M08 A3001 RMK AO2 SLP170
                 T10111083 =
2019-01-15 13:53 METAR KAUG 151853Z AUTO 32004KT 10SM BKN031 M01/M08 A3000 RMK AO2 SLP167
                 T10061078 =
2019-01-15 12:53 METAR KAUG 151753Z AUTO 32010KT 10SM FEW060 M01/M08 A2999 RMK AO2 SLP163
                 T10111083 11011 21111 58015 =
2019-01-15 11:53 METAR KAUG 151653Z AUTO 05003KT 10SM CLR M02/M09 A3000 RMK AO2 SLP167 T10221089
                 =
2019-01-15 10:53 METAR KAUG 151553Z AUTO 02006KT 10SM SCT048 M05/M10 A3004 RMK AO2 SLP179
                 T10501100 =
2019-01-15 09:53 METAR KAUG 151453Z AUTO 02005KT 10SM OVC048 M06/M11 A3004 RMK AO2 SLP179
                 T10611106 53007 =
2019-01-15 08:53 METAR KAUG 151353Z AUTO 00000KT 10SM OVC050 M08/M12 A3004 RMK AO2 SLP178
                 T10831122 =
2019-01-15 07:53 METAR KAUG 151253Z AUTO 34004KT 10SM OVC050 M10/M14 A3002 RMK AO2 SLP172
                 T11001139 =
2019-01-15 06:53 METAR KAUG 151153Z AUTO 32005KT 10SM OVC050 M11/M15 A3002 RMK AO2 SLP172
                 T11111150 11111 21133 53010 =
2019-01-15 05:53 METAR KAUG 151053Z AUTO 34006KT 10SM CLR M13/M16 A3001 RMK AO2 SLP168 T11281156
                 =
2019-01-15 04:53 METAR KAUG 150953Z AUTO 36005KT 10SM CLR M12/M16 A2999 RMK AO2 SLP164 T11171156
                 =
2019-01-15 03:53 METAR KAUG 150853Z AUTO 35007KT 10SM CLR M13/M15 A2999 RMK AO2 SLP161 T11281150
                 58008 =
2019-01-15 02:53 METAR KAUG 150753Z AUTO 35005KT 10SM CLR M13/M14 A3000 RMK AO2 SLP166 T11281144
                 =
2019-01-15 01:53 METAR KAUG 150653Z AUTO 32004KT 10SM CLR M12/M14 A3000 RMK AO2 SLP167 T11171139
                 =
2019-01-15 00:53 METAR KAUG 150553Z AUTO 34005KT 10SM CLR M13/M14 A3001 RMK AO2 SLP170 T11281144
                 11083 21128 56019 =
2019-01-14 23:53 METAR KAUG 150453Z AUTO 36004KT 10SM CLR M12/M14 A3002 RMK AO2 SLP175 T11221144
                 410561189 =
2019-01-14 22:53 METAR KAUG 150353Z AUTO 34004KT 10SM CLR M12/M14 A3005 RMK AO2 SLP184 T11171144
                 =
2019-01-14 21:53 METAR KAUG 150253Z AUTO 33004KT 10SM CLR M12/M14 A3007 RMK AO2 SLP190 T11171144
                 56011 =
2019-01-14 20:53 METAR KAUG 150153Z AUTO 00000KT 10SM CLR M12/M14 A3007 RMK AO2 SLP192 T11171144
                 =
2019-01-14 19:53 METAR KAUG 150053Z AUTO 00000KT 10SM CLR M10/M14 A3008 RMK AO2 SLP196 T11001144
                 =

Support USWX by starting your Amazon purchase here.